createdAt,value
2022-08-07T00:00:52.573Z,99.90
2022-08-07T00:03:55.193Z,99.90
2022-08-07T00:06:56.940Z,99.90
2022-08-07T00:10:25.552Z,99.90
2022-08-07T00:13:26.891Z,99.90
2022-08-07T00:16:28.830Z,99.90
2022-08-07T00:19:59.873Z,99.90
2022-08-07T00:22:53.402Z,99.90
2022-08-07T00:25:59.291Z,99.90
2022-08-07T00:29:02.272Z,99.90
2022-08-07T00:32:06.734Z,99.90
2022-08-07T00:35:08.972Z,99.90
2022-08-07T00:38:10.645Z,99.90
2022-08-07T00:41:15.279Z,99.90
2022-08-07T00:44:17.227Z,99.90
2022-08-07T00:48:08.736Z,99.90
2022-08-07T00:50:43.723Z,99.90
2022-08-07T00:53:50.255Z,99.90
2022-08-07T00:56:57.199Z,99.90
2022-08-07T00:59:59.850Z,99.90
2022-08-07T01:03:01.623Z,99.90
2022-08-07T01:06:03.879Z,99.90
2022-08-07T01:09:05.612Z,99.90
2022-08-07T01:12:30.221Z,99.90
2022-08-07T01:15:35.678Z,99.90
2022-08-07T01:18:56.276Z,99.90
2022-08-07T01:21:59.245Z,99.90
2022-08-07T01:25:05.102Z,99.90
2022-08-07T01:28:07.063Z,99.90
2022-08-07T01:31:15.229Z,99.90
2022-08-07T01:34:19.545Z,99.90
2022-08-07T01:37:22.034Z,99.90
2022-08-07T01:40:26.084Z,99.90
2022-08-07T01:43:34.779Z,99.90
2022-08-07T01:46:41.245Z,99.90
2022-08-07T01:49:43.533Z,99.90
2022-08-07T01:52:54.032Z,99.90
2022-08-07T01:56:00.984Z,99.90
2022-08-07T01:59:15.765Z,99.90
2022-08-07T02:03:18.674Z,99.90
2022-08-07T02:06:31.325Z,99.90
2022-08-07T02:09:53.034Z,99.90
2022-08-07T02:13:05.605Z,99.90
2022-08-07T02:16:11.946Z,99.90
2022-08-07T02:20:05.156Z,99.90
2022-08-07T02:22:41.392Z,99.90
2022-08-07T02:26:30.635Z,99.90
2022-08-07T02:29:13.774Z,99.90
2022-08-07T02:32:16.922Z,99.90
2022-08-07T02:36:29.618Z,99.90
2022-08-07T02:38:50.840Z,99.90
2022-08-07T02:41:59.521Z,99.90
2022-08-07T02:45:51.904Z,99.90
2022-08-07T02:48:28.548Z,99.90
2022-08-07T02:51:49.801Z,99.90
2022-08-07T02:54:55.131Z,99.90
2022-08-07T02:58:04.177Z,99.90
2022-08-07T03:01:18.475Z,99.90
2022-08-07T03:04:22.971Z,99.90
2022-08-07T03:07:58.992Z,99.90
2022-08-07T03:10:49.181Z,99.90
2022-08-07T03:13:51.589Z,99.90
2022-08-07T03:16:59.876Z,99.90
2022-08-07T03:20:07.597Z,99.90
2022-08-07T03:23:18.965Z,99.90
2022-08-07T03:26:25.613Z,99.90
2022-08-07T03:29:51.231Z,99.90
2022-08-07T03:32:58.780Z,99.90
2022-08-07T03:36:01.261Z,99.90
2022-08-07T03:39:12.949Z,99.90
2022-08-07T03:42:17.178Z,99.90
2022-08-07T03:45:30.404Z,99.90
2022-08-07T03:48:34.405Z,99.90
2022-08-07T03:51:55.359Z,99.90
2022-08-07T03:55:07.447Z,99.90
2022-08-07T03:59:05.758Z,99.90
2022-08-07T04:01:33.954Z,99.90
2022-08-07T04:04:41.720Z,99.90
2022-08-07T04:07:47.962Z,99.90
2022-08-07T04:10:54.528Z,99.90
2022-08-07T04:14:37.091Z,99.90
2022-08-07T04:18:31.003Z,99.90
2022-08-07T04:21:00.546Z,99.90
2022-08-07T04:24:07.800Z,99.90
2022-08-07T04:27:20.606Z,99.90
2022-08-07T04:30:35.958Z,99.90
2022-08-07T04:33:46.872Z,99.90
2022-08-07T04:36:57.069Z,99.90
2022-08-07T04:39:59.086Z,99.90
2022-08-07T04:43:03.631Z,99.90
2022-08-07T04:47:03.919Z,99.90
2022-08-07T04:50:17.493Z,99.90
2022-08-07T04:54:01.330Z,99.90
2022-08-07T04:58:14.586Z,99.90
2022-08-07T05:00:51.861Z,99.90
2022-08-07T05:04:08.560Z,99.90
2022-08-07T05:07:30.497Z,99.90
2022-08-07T05:10:47.729Z,99.90
2022-08-07T05:14:52.441Z,99.90
2022-08-07T05:17:51.696Z,99.90
2022-08-07T05:20:49.221Z,99.90
2022-08-07T05:24:00.252Z,99.90
2022-08-07T05:27:03.564Z,99.90
2022-08-07T05:30:07.231Z,99.90
2022-08-07T05:33:18.172Z,99.90
2022-08-07T05:36:30.540Z,99.90
2022-08-07T05:40:14.269Z,99.90
2022-08-07T05:43:00.394Z,99.90
2022-08-07T05:46:02.964Z,99.90
2022-08-07T05:49:12.078Z,99.90
2022-08-07T05:52:14.622Z,99.90
2022-08-07T05:55:22.384Z,99.90
2022-08-07T05:58:36.394Z,99.90
2022-08-07T06:01:40.593Z,99.90
2022-08-07T06:04:50.690Z,99.90
2022-08-07T06:08:14.775Z,99.90
2022-08-07T06:11:15.220Z,99.90
2022-08-07T06:14:20.810Z,99.90
2022-08-07T06:17:23.501Z,99.90
2022-08-07T06:20:50.870Z,99.90
2022-08-07T06:24:46.053Z,99.90
2022-08-07T06:28:00.730Z,99.90
2022-08-07T06:30:51.839Z,99.90
2022-08-07T06:33:55.425Z,99.90
2022-08-07T06:36:59.500Z,99.90
2022-08-07T06:40:17.639Z,99.90
2022-08-07T06:43:26.806Z,99.90
2022-08-07T06:46:35.242Z,99.90
2022-08-07T06:49:51.032Z,99.90
2022-08-07T06:52:56.097Z,99.90
2022-08-07T06:56:00.825Z,99.90
2022-08-07T07:00:11.356Z,99.90
2022-08-07T07:02:53.336Z,99.90
2022-08-07T07:06:03.282Z,99.90
2022-08-07T07:09:24.300Z,99.90
2022-08-07T07:12:48.652Z,99.90
2022-08-07T07:16:00.237Z,99.90
2022-08-07T07:19:23.616Z,99.90
2022-08-07T07:22:36.322Z,99.90
2022-08-07T07:26:34.089Z,99.90
2022-08-07T07:29:38.865Z,99.90
2022-08-07T07:32:40.508Z,99.90
2022-08-07T07:36:03.889Z,99.90
2022-08-07T07:39:07.269Z,99.90
2022-08-07T07:42:13.277Z,99.90
2022-08-07T07:45:18.290Z,99.90
2022-08-07T07:48:35.789Z,99.90
2022-08-07T07:51:58.316Z,99.90
2022-08-07T07:55:04.243Z,99.90
2022-08-07T07:58:08.335Z,99.90
2022-08-07T08:02:04.810Z,99.80
2022-08-07T08:04:37.109Z,98.50
2022-08-07T08:07:42.425Z,98.20
2022-08-07T08:11:02.242Z,97.40
2022-08-07T08:14:05.745Z,97.10
2022-08-07T08:18:36.991Z,97.20
2022-08-07T08:20:36.544Z,96.50
2022-08-07T08:23:56.874Z,95.40
2022-08-07T08:27:10.354Z,94.60
2022-08-07T08:30:17.486Z,94.90
2022-08-07T08:33:24.777Z,94.80
2022-08-07T08:36:34.012Z,91.70
2022-08-07T08:39:39.328Z,91.20
2022-08-07T08:43:17.187Z,91.60
2022-08-07T08:46:28.807Z,91.80
2022-08-07T08:50:02.453Z,95.00
2022-08-07T08:53:20.270Z,95.20
2022-08-07T08:56:27.139Z,94.40
2022-08-07T08:59:42.285Z,93.90
2022-08-07T09:03:08.326Z,94.20
2022-08-07T09:06:18.091Z,94.30
2022-08-07T09:09:36.734Z,94.50
2022-08-07T09:12:53.012Z,93.00
2022-08-07T09:16:23.809Z,92.30
2022-08-07T09:19:57.387Z,90.40
2022-08-07T09:24:33.796Z,86.90
2022-08-07T09:27:09.131Z,82.50
2022-08-07T09:30:14.645Z,81.40
2022-08-07T09:33:57.724Z,83.60
2022-08-07T09:37:33.495Z,81.90
2022-08-07T09:41:07.964Z,79.80
2022-08-07T09:44:46.480Z,78.30
2022-08-07T09:48:29.950Z,79.60
2022-08-07T09:52:33.681Z,78.20
2022-08-07T09:56:06.635Z,80.30
2022-08-07T09:59:14.886Z,79.60
2022-08-07T10:04:05.777Z,78.60
2022-08-07T10:07:34.483Z,78.70
2022-08-07T10:11:59.980Z,78.50
2022-08-07T10:14:42.165Z,80.00
2022-08-07T10:18:10.644Z,80.90
2022-08-07T10:22:12.592Z,80.10
2022-08-07T10:25:06.030Z,78.60
2022-08-07T10:28:54.400Z,79.20
2022-08-07T10:32:36.532Z,80.80
2022-08-07T10:36:05.173Z,78.20
2022-08-07T10:40:03.251Z,78.90
2022-08-07T10:43:34.790Z,80.50
2022-08-07T10:47:01.799Z,80.50
2022-08-07T10:50:27.779Z,81.30
2022-08-07T10:53:48.409Z,81.80
2022-08-07T10:57:05.360Z,81.70
2022-08-07T11:00:39.579Z,82.00
2022-08-07T11:03:42.964Z,82.20
2022-08-07T11:07:15.050Z,84.10
2022-08-07T11:10:38.929Z,82.70
2022-08-07T11:14:45.853Z,82.90
2022-08-07T11:17:53.842Z,81.40
2022-08-07T11:21:14.198Z,83.60
2022-08-07T11:24:45.534Z,82.90
2022-08-07T11:28:04.093Z,81.90
2022-08-07T11:31:12.191Z,82.20
2022-08-07T11:34:42.721Z,80.20
2022-08-07T11:38:10.086Z,81.10
2022-08-07T11:41:18.228Z,84.30
2022-08-07T11:44:52.515Z,82.70
2022-08-07T11:48:29.569Z,83.30
2022-08-07T11:51:47.204Z,85.50
2022-08-07T11:55:13.008Z,82.80
2022-08-07T12:00:08.888Z,82.10
2022-08-07T12:02:59.674Z,81.80
2022-08-07T12:06:57.354Z,85.50
2022-08-07T12:10:13.342Z,86.00
2022-08-07T12:13:35.543Z,86.00
2022-08-07T12:17:04.338Z,85.20
2022-08-07T12:20:30.463Z,86.80
2022-08-07T12:24:07.416Z,84.70
2022-08-07T12:27:17.724Z,85.60
2022-08-07T12:30:34.886Z,84.70
2022-08-07T12:34:01.251Z,85.10
2022-08-07T12:37:02.063Z,87.00
2022-08-07T12:40:30.027Z,87.00
2022-08-07T12:44:04.233Z,88.50
2022-08-07T12:47:37.548Z,86.00
2022-08-07T12:51:17.072Z,85.70
2022-08-07T12:54:38.114Z,87.50
2022-08-07T12:58:01.118Z,85.80
2022-08-07T13:01:34.644Z,85.10
2022-08-07T13:05:01.770Z,83.90
2022-08-07T13:08:34.564Z,84.50
2022-08-07T13:12:03.287Z,84.80
2022-08-07T13:15:23.517Z,84.80
2022-08-07T13:18:50.727Z,84.90
2022-08-07T13:22:19.567Z,85.90
2022-08-07T13:25:30.027Z,85.70
2022-08-07T13:28:46.461Z,86.30
2022-08-07T13:32:00.047Z,85.90
2022-08-07T13:36:00.950Z,85.50
2022-08-07T13:38:56.963Z,85.00
2022-08-07T13:42:00.960Z,85.30
2022-08-07T13:46:07.200Z,84.80
2022-08-07T13:48:34.661Z,84.80
2022-08-07T13:52:05.155Z,84.90
2022-08-07T13:55:10.815Z,86.00
2022-08-07T13:58:36.863Z,86.70
2022-08-07T14:02:03.597Z,85.00
2022-08-07T14:05:12.327Z,87.50
2022-08-07T14:08:15.920Z,85.70
2022-08-07T14:11:21.689Z,84.70
2022-08-07T14:14:31.264Z,85.30
2022-08-07T14:18:15.896Z,84.80
2022-08-07T14:22:01.145Z,85.90
2022-08-07T14:24:51.316Z,86.40
2022-08-07T14:28:12.585Z,86.80
2022-08-07T14:31:16.362Z,86.20
2022-08-07T14:34:27.198Z,85.40
2022-08-07T14:37:36.272Z,85.40
2022-08-07T14:40:42.908Z,85.60
2022-08-07T14:43:55.205Z,85.80
2022-08-07T14:47:14.178Z,86.00
2022-08-07T14:54:08.614Z,78.20
2022-08-07T14:56:48.991Z,78.20
2022-08-07T15:00:03.641Z,78.20
2022-08-07T15:06:34.768Z,77.80
2022-08-07T15:09:59.190Z,77.70
2022-08-07T15:13:11.962Z,77.70
2022-08-07T15:16:31.199Z,78.80
2022-08-07T15:20:30.798Z,78.30
2022-08-07T15:23:01.318Z,76.30
2022-08-07T15:26:33.332Z,77.40
2022-08-07T15:30:08.531Z,76.40
2022-08-07T15:33:05.522Z,77.20
2022-08-07T15:36:57.488Z,77.60
2022-08-07T15:39:56.959Z,76.70
2022-08-07T15:43:53.605Z,75.90
2022-08-07T15:46:45.919Z,77.20
2022-08-07T15:53:51.877Z,76.70
2022-08-07T15:56:52.385Z,76.20
2022-08-07T15:59:56.634Z,78.50
2022-08-07T16:03:21.745Z,77.40
2022-08-07T16:06:39.353Z,77.70
2022-08-07T16:09:53.967Z,79.00
2022-08-07T16:13:57.353Z,77.50
2022-08-07T16:18:02.993Z,78.70
2022-08-07T16:22:02.049Z,79.40
2022-08-07T16:24:52.727Z,80.20
2022-08-07T16:30:07.090Z,79.80
2022-08-07T16:32:35.351Z,78.70
2022-08-07T16:35:58.270Z,79.20
2022-08-07T16:39:40.584Z,80.30
2022-08-07T16:43:18.135Z,81.60
2022-08-07T16:47:14.357Z,80.40
2022-08-07T16:50:37.128Z,80.40
2022-08-07T16:54:19.507Z,82.20
2022-08-07T16:58:02.034Z,82.20
2022-08-07T17:01:22.891Z,83.30
2022-08-07T17:04:57.817Z,82.60
2022-08-07T17:08:02.060Z,83.30
2022-08-07T17:11:14.298Z,83.50
2022-08-07T17:14:45.397Z,84.20
2022-08-07T17:17:47.772Z,84.70
2022-08-07T17:20:54.745Z,85.20
2022-08-07T17:24:23.826Z,85.70
2022-08-07T17:27:51.027Z,86.00
2022-08-07T17:31:16.250Z,86.30
2022-08-07T17:34:40.942Z,85.90
2022-08-07T17:38:33.554Z,87.10
2022-08-07T17:42:01.767Z,86.80
2022-08-07T17:45:20.161Z,87.00
2022-08-07T17:48:34.173Z,87.80
2022-08-07T17:51:59.641Z,87.60
2022-08-07T17:55:12.938Z,87.20
2022-08-07T17:58:30.503Z,87.40
2022-08-07T18:02:02.913Z,88.90
2022-08-07T18:05:21.495Z,88.20
2022-08-07T18:08:34.487Z,88.60
2022-08-07T18:12:17.988Z,89.10
2022-08-07T18:15:23.199Z,88.80
2022-08-07T18:18:45.210Z,89.50
2022-08-07T18:22:02.910Z,90.00
2022-08-07T18:25:39.403Z,90.30
2022-08-07T18:29:03.923Z,90.80
2022-08-07T18:32:09.073Z,90.80
2022-08-07T18:35:16.897Z,91.00
2022-08-07T18:38:55.184Z,91.20
2022-08-07T18:42:20.050Z,91.60
2022-08-07T18:45:44.400Z,91.90
2022-08-07T18:50:05.819Z,92.30
2022-08-07T18:52:54.185Z,92.40
2022-08-07T18:56:14.632Z,92.40
2022-08-07T18:59:59.274Z,92.60
2022-08-07T19:03:36.154Z,93.00
2022-08-07T19:06:56.731Z,92.90
2022-08-07T19:10:12.163Z,93.20
2022-08-07T19:13:24.340Z,93.60
2022-08-07T19:17:04.536Z,94.10
2022-08-07T19:20:29.236Z,94.20
2022-08-07T19:23:58.636Z,95.00
2022-08-07T19:28:58.268Z,94.90
2022-08-07T19:30:58.758Z,95.30
2022-08-07T19:33:58.318Z,95.50
2022-08-07T19:37:09.980Z,95.70
2022-08-07T19:40:30.813Z,95.90
2022-08-07T19:43:50.224Z,96.10
2022-08-07T19:47:07.584Z,96.30
2022-08-07T19:50:44.393Z,96.30
2022-08-07T19:54:34.052Z,96.30
2022-08-07T19:58:00.479Z,96.50
2022-08-07T20:00:29.653Z,96.90
2022-08-07T20:03:34.619Z,96.60
2022-08-07T20:06:42.807Z,96.70
2022-08-07T20:10:38.144Z,96.70
2022-08-07T20:13:23.027Z,97.00
2022-08-07T20:16:35.520Z,97.00
2022-08-07T20:19:49.365Z,97.10
2022-08-07T20:23:23.264Z,97.40
2022-08-07T20:26:44.994Z,97.50
2022-08-07T20:29:58.452Z,97.40
2022-08-07T20:33:04.643Z,97.40
2022-08-07T20:36:17.026Z,97.30
2022-08-07T20:40:01.275Z,97.40
2022-08-07T20:42:56.614Z,97.30
2022-08-07T20:46:28.787Z,96.80
2022-08-07T20:49:59.905Z,96.90
2022-08-07T20:52:51.080Z,97.20
2022-08-07T20:55:58.133Z,97.10
2022-08-07T20:59:05.275Z,97.50
2022-08-07T21:02:39.102Z,97.60
2022-08-07T21:05:54.419Z,97.90
2022-08-07T21:09:14.227Z,97.70
2022-08-07T21:12:25.675Z,98.00
2022-08-07T21:15:47.682Z,98.20
2022-08-07T21:18:59.607Z,98.10
2022-08-07T21:22:06.068Z,98.50
2022-08-07T21:25:20.829Z,98.60
2022-08-07T21:28:49.555Z,98.80
2022-08-07T21:32:42.914Z,98.80
2022-08-07T21:36:04.251Z,99.00
2022-08-07T21:39:47.236Z,99.20
2022-08-07T21:43:22.997Z,99.40
2022-08-07T21:46:34.909Z,99.10
2022-08-07T21:50:02.730Z,99.20
2022-08-07T21:53:37.060Z,99.10
2022-08-07T21:57:04.540Z,99.10
2022-08-07T22:00:22.241Z,99.10
2022-08-07T22:03:46.141Z,99.30
2022-08-07T22:07:16.101Z,99.50
2022-08-07T22:10:22.224Z,99.70
2022-08-07T22:13:50.430Z,99.70
2022-08-07T22:16:59.934Z,99.90
2022-08-07T22:20:32.616Z,99.90
2022-08-07T22:23:56.909Z,99.90
2022-08-07T22:27:03.953Z,99.90
2022-08-07T22:30:27.260Z,99.90
2022-08-07T22:33:52.750Z,99.90
2022-08-07T22:37:14.225Z,99.90
2022-08-07T22:40:28.534Z,99.90
2022-08-07T22:43:49.505Z,99.90
2022-08-07T22:47:04.031Z,99.90
2022-08-07T22:50:13.459Z,99.90
2022-08-07T22:54:07.501Z,99.90
2022-08-07T22:57:26.568Z,99.90
2022-08-07T23:00:36.389Z,99.90
2022-08-07T23:04:00.066Z,99.90
2022-08-07T23:07:05.152Z,99.90
2022-08-07T23:11:10.374Z,99.90
2022-08-07T23:14:59.891Z,99.90
2022-08-07T23:18:20.143Z,99.90
2022-08-07T23:21:36.848Z,99.90
2022-08-07T23:25:02.618Z,99.90
2022-08-07T23:28:29.015Z,99.90
2022-08-07T23:32:49.255Z,99.90
2022-08-07T23:35:13.445Z,99.90
2022-08-07T23:38:56.981Z,99.90
2022-08-07T23:42:37.553Z,99.90
2022-08-07T23:46:03.454Z,99.90
2022-08-07T23:49:50.405Z,99.90
2022-08-07T23:53:17.462Z,99.90
2022-08-07T23:56:59.275Z,99.90
